createdAt,value
2022-11-03T00:03:27.729Z,11.30
2022-11-03T00:08:29.533Z,11.70
2022-11-03T00:13:38.709Z,12.20
2022-11-03T00:18:40.659Z,12.10
2022-11-03T00:23:44.007Z,13.10
2022-11-03T00:28:47.703Z,12.50
2022-11-03T00:33:50.438Z,15.30
2022-11-03T00:38:52.990Z,15.30
2022-11-03T00:43:55.289Z,16.00
2022-11-03T00:48:57.119Z,16.80
2022-11-03T00:54:01.104Z,18.20
2022-11-03T00:59:05.192Z,17.30
2022-11-03T01:04:26.868Z,17.30
2022-11-03T01:09:31.642Z,15.10
2022-11-03T01:14:36.459Z,13.40
2022-11-03T01:19:38.340Z,18.20
2022-11-03T01:24:41.744Z,18.50
2022-11-03T01:29:44.056Z,16.90
2022-11-03T01:34:45.981Z,20.10
2022-11-03T01:39:47.786Z,17.00
2022-11-03T01:44:49.774Z,17.20
2022-11-03T01:50:05.980Z,18.70
2022-11-03T01:55:13.572Z,17.10
2022-11-03T02:00:15.952Z,17.60
2022-11-03T02:05:21.772Z,18.00
2022-11-03T02:10:25.270Z,18.80
2022-11-03T02:15:28.956Z,16.80
2022-11-03T02:20:31.997Z,18.30
2022-11-03T02:25:36.532Z,21.50
2022-11-03T02:31:00.021Z,22.00
2022-11-03T02:36:05.897Z,22.50
2022-11-03T02:41:09.231Z,25.80
2022-11-03T02:46:13.433Z,24.90
2022-11-03T02:51:15.227Z,26.30
2022-11-03T02:56:23.217Z,23.90
2022-11-03T03:01:47.555Z,24.70
2022-11-03T03:06:57.777Z,21.10
2022-11-03T03:12:02.470Z,20.20
2022-11-03T03:17:24.414Z,18.90
2022-11-03T03:22:36.764Z,18.60
2022-11-03T03:27:43.442Z,18.50
2022-11-03T03:32:49.134Z,18.70
2022-11-03T03:37:54.943Z,19.40
2022-11-03T03:42:58.255Z,21.50
2022-11-03T03:48:00.764Z,21.70
2022-11-03T03:53:05.308Z,23.60
2022-11-03T03:58:08.476Z,21.40
2022-11-03T04:03:19.917Z,23.10
2022-11-03T04:08:21.879Z,22.90
2022-11-03T04:13:42.453Z,24.70
2022-11-03T04:19:02.963Z,24.10
2022-11-03T04:24:04.970Z,25.60
2022-11-03T04:29:09.660Z,24.50
2022-11-03T04:34:13.063Z,24.00
2022-11-03T04:39:21.210Z,25.20
2022-11-03T04:44:23.083Z,23.00
2022-11-03T04:49:25.333Z,23.80
2022-11-03T04:54:27.274Z,23.50
2022-11-03T04:59:29.452Z,25.50
2022-11-03T05:04:31.193Z,25.20
2022-11-03T05:09:33.000Z,25.90
2022-11-03T05:14:34.823Z,28.10
2022-11-03T05:19:41.264Z,27.20
2022-11-03T05:24:44.117Z,26.80
2022-11-03T05:29:47.270Z,28.00
2022-11-03T05:34:51.424Z,30.00
2022-11-03T05:39:59.587Z,29.20
2022-11-03T05:45:15.884Z,28.30
2022-11-03T05:50:22.176Z,29.00
2022-11-03T05:55:37.254Z,28.90
2022-11-03T06:00:48.160Z,29.90
2022-11-03T06:05:51.926Z,27.70
2022-11-03T06:10:57.081Z,23.20
2022-11-03T06:16:21.155Z,28.00
2022-11-03T06:21:25.585Z,29.60
2022-11-03T06:26:28.850Z,28.50
2022-11-03T06:31:33.129Z,29.70
2022-11-03T06:36:37.371Z,25.00
2022-11-03T06:41:39.961Z,28.80
2022-11-03T06:46:41.829Z,31.00
2022-11-03T06:51:43.644Z,28.70
2022-11-03T06:56:45.467Z,29.80
2022-11-03T07:01:55.403Z,25.20
2022-11-03T07:07:03.091Z,22.10
2022-11-03T07:12:14.998Z,19.60
2022-11-03T07:17:22.126Z,19.30
2022-11-03T07:22:26.115Z,22.20
2022-11-03T07:27:31.245Z,21.30
2022-11-03T07:32:34.730Z,16.10
2022-11-03T07:37:36.851Z,16.70
2022-11-03T07:42:38.751Z,15.60
2022-11-03T07:47:44.017Z,16.90
2022-11-03T07:52:45.798Z,18.80
2022-11-03T07:57:48.301Z,18.20
2022-11-03T08:02:59.200Z,18.90
2022-11-03T08:08:01.063Z,21.10
2022-11-03T08:13:02.961Z,20.20
2022-11-03T08:18:04.882Z,19.00
2022-11-03T08:23:24.612Z,22.20
2022-11-03T08:28:27.451Z,20.40
2022-11-03T08:38:36.479Z,20.80
2022-11-03T08:43:38.282Z,18.90
2022-11-03T08:48:40.280Z,11.30
2022-11-03T08:53:42.999Z,8.70
2022-11-03T08:58:44.944Z,6.30
2022-11-03T09:03:46.919Z,5.50
2022-11-03T09:14:10.803Z,3.40
2022-11-03T09:19:12.662Z,3.50
2022-11-03T09:24:14.469Z,3.50
2022-11-03T09:29:16.277Z,3.30
2022-11-03T09:34:18.112Z,2.50
2022-11-03T09:39:19.980Z,2.30
2022-11-03T09:44:21.838Z,2.20
2022-11-03T09:49:23.896Z,1.90
2022-11-03T09:54:27.195Z,1.70
2022-11-03T09:59:30.522Z,1.90
2022-11-03T10:04:32.491Z,2.10
2022-11-03T10:09:34.622Z,1.90
2022-11-03T10:14:37.067Z,1.70
2022-11-03T10:19:38.885Z,2.50
2022-11-03T10:24:40.702Z,2.40
2022-11-03T10:29:45.391Z,1.60
2022-11-03T10:34:52.615Z,1.80
2022-11-03T10:39:57.255Z,2.00
2022-11-03T10:45:19.987Z,1.90
2022-11-03T10:50:26.910Z,1.90
2022-11-03T10:55:30.478Z,1.90
2022-11-03T11:00:33.369Z,2.30
2022-11-03T11:05:35.317Z,2.30
2022-11-03T11:10:37.187Z,2.20
2022-11-03T11:15:50.968Z,2.50
2022-11-03T11:20:52.748Z,2.30
2022-11-03T11:26:09.947Z,2.10
2022-11-03T11:31:27.133Z,2.30
2022-11-03T11:36:29.113Z,2.40
2022-11-03T11:42:08.695Z,2.30
2022-11-03T11:47:27.940Z,1.80
2022-11-03T11:52:30.297Z,2.30
2022-11-03T11:57:35.346Z,3.80
2022-11-03T12:02:37.183Z,3.40
2022-11-03T12:07:38.956Z,2.70
2022-11-03T12:12:40.723Z,2.90
2022-11-03T12:17:42.512Z,3.50
2022-11-03T12:22:44.366Z,3.70
2022-11-03T12:27:46.349Z,4.90
2022-11-03T12:32:48.355Z,4.00
2022-11-03T12:37:50.139Z,3.30
2022-11-03T12:42:52.056Z,3.30
2022-11-03T12:47:53.829Z,4.40
2022-11-03T12:52:55.627Z,3.50
2022-11-03T12:57:57.494Z,3.70
2022-11-03T13:02:59.313Z,3.30
2022-11-03T13:08:01.104Z,3.00
2022-11-03T13:13:02.923Z,2.90
2022-11-03T13:18:14.069Z,2.80
2022-11-03T13:23:18.856Z,2.30
2022-11-03T13:28:24.148Z,3.40
2022-11-03T13:33:26.045Z,2.30
2022-11-03T13:38:27.832Z,3.00
2022-11-03T13:43:29.612Z,3.60
2022-11-03T14:04:44.603Z,3.30
2022-11-03T14:09:47.153Z,3.70
2022-11-03T14:14:48.949Z,3.60
2022-11-03T14:19:52.839Z,3.10
2022-11-03T14:24:57.127Z,3.80
2022-11-03T14:29:59.006Z,3.20
2022-11-03T14:35:00.911Z,3.40
2022-11-03T14:40:03.159Z,4.10
2022-11-03T14:45:05.412Z,4.10
2022-11-03T14:50:07.747Z,4.10
2022-11-03T14:55:09.664Z,16.40
2022-11-03T15:00:11.840Z,18.20
2022-11-03T15:05:33.631Z,6.50
2022-11-03T15:10:35.427Z,5.10
2022-11-03T15:15:37.334Z,4.90
2022-11-03T15:20:39.177Z,3.90
2022-11-03T15:25:41.047Z,4.20
2022-11-03T15:30:42.926Z,5.00
2022-11-03T15:35:45.344Z,5.00
2022-11-03T15:40:47.177Z,5.60
2022-11-03T15:45:48.932Z,5.40
2022-11-03T15:50:50.946Z,5.60
2022-11-03T15:55:52.843Z,5.90
2022-11-03T16:00:54.723Z,6.80
2022-11-03T16:05:56.716Z,5.90
2022-11-03T16:10:58.606Z,6.60
2022-11-03T16:16:00.502Z,6.40
2022-11-03T16:21:02.489Z,6.60
2022-11-03T16:26:05.746Z,9.10
2022-11-03T16:31:07.549Z,7.70
2022-11-03T16:36:09.460Z,9.90
2022-11-03T16:41:11.822Z,11.30
2022-11-03T16:46:13.675Z,11.90
2022-11-03T16:51:15.509Z,10.00
2022-11-03T16:56:17.350Z,9.70
2022-11-03T17:01:19.303Z,9.40
2022-11-03T17:06:21.367Z,8.00
2022-11-03T17:11:49.388Z,7.60
2022-11-03T17:16:51.313Z,7.50
2022-11-03T17:21:53.770Z,7.10
2022-11-03T17:27:07.568Z,8.10
2022-11-03T17:32:22.159Z,8.60
2022-11-03T17:37:25.200Z,8.10
2022-11-03T17:42:28.617Z,8.00
2022-11-03T17:47:31.853Z,6.90
2022-11-03T17:52:34.116Z,8.10
2022-11-03T17:57:36.574Z,8.30
2022-11-03T18:02:40.600Z,7.70
2022-11-03T18:07:42.943Z,8.30
2022-11-03T18:13:07.509Z,6.80
2022-11-03T18:18:14.664Z,7.50
2022-11-03T18:23:30.515Z,7.80
2022-11-03T18:28:32.345Z,7.70
2022-11-03T18:33:36.139Z,9.40
2022-11-03T18:38:41.466Z,9.60
2022-11-03T18:43:43.269Z,9.90
2022-11-03T18:48:45.099Z,11.00
2022-11-03T18:53:46.975Z,10.10
2022-11-03T18:58:52.639Z,10.60
2022-11-03T19:03:56.395Z,12.70
2022-11-03T19:08:59.807Z,10.90
2022-11-03T19:14:01.827Z,10.60
2022-11-03T19:19:04.164Z,13.00
2022-11-03T19:24:06.268Z,11.90
2022-11-03T19:29:14.750Z,11.30
2022-11-03T19:34:20.047Z,11.80
2022-11-03T19:39:36.083Z,11.60
2022-11-03T19:44:37.960Z,10.80
2022-11-03T19:49:39.810Z,11.20
2022-11-03T19:54:48.756Z,12.70
2022-11-03T19:59:50.539Z,11.70
2022-11-03T20:04:52.326Z,13.30
2022-11-03T20:09:54.137Z,13.50
2022-11-03T20:14:55.975Z,12.80
2022-11-03T20:19:57.993Z,15.30
2022-11-03T20:25:03.323Z,13.60
2022-11-03T20:30:05.942Z,14.90
2022-11-03T20:35:13.448Z,13.20
2022-11-03T20:40:19.466Z,13.40
2022-11-03T20:45:23.314Z,13.60
2022-11-03T20:50:25.872Z,13.70
2022-11-03T20:55:27.662Z,13.80
2022-11-03T21:00:31.735Z,15.20
2022-11-03T21:05:33.607Z,12.20
2022-11-03T21:10:36.035Z,14.20
2022-11-03T21:16:23.004Z,15.80
2022-11-03T21:21:21.495Z,17.50
2022-11-03T21:26:23.386Z,14.20
2022-11-03T21:31:25.234Z,16.00
2022-11-03T21:36:27.022Z,14.90
2022-11-03T21:41:47.758Z,15.90
2022-11-03T21:46:49.536Z,14.60
2022-11-03T21:51:51.397Z,16.60
2022-11-03T21:56:53.262Z,15.60
2022-11-03T22:01:55.403Z,14.50
2022-11-03T22:06:59.102Z,15.20
2022-11-03T22:12:05.673Z,13.60
2022-11-03T22:17:07.540Z,14.60
2022-11-03T22:22:33.707Z,13.20
2022-11-03T22:27:35.543Z,10.80
2022-11-03T22:32:39.917Z,9.10
2022-11-03T22:37:42.071Z,7.50
2022-11-03T22:43:03.590Z,7.10
2022-11-03T22:48:09.475Z,10.20
2022-11-03T22:53:30.498Z,9.90
2022-11-03T22:58:33.374Z,12.00
2022-11-03T23:03:37.270Z,11.40
2022-11-03T23:08:41.163Z,12.00
2022-11-03T23:13:44.879Z,12.30
2022-11-03T23:19:06.472Z,12.60
2022-11-03T23:24:27.165Z,11.30
2022-11-03T23:29:29.462Z,12.20
2022-11-03T23:34:31.283Z,10.10
2022-11-03T23:39:33.081Z,12.00
2022-11-03T23:44:53.636Z,13.00
2022-11-03T23:49:55.428Z,12.70
2022-11-03T23:54:57.312Z,9.60
2022-11-03T23:59:59.157Z,12.30
